West Bergholt, United Kingdom
Current Conditions -  °F | °C
As of 7:50 AM on Thursday 27 Nov 2014 (Local Time) from EGUW Reporting Station
Haze Haze  
Wind Chill: 50°   Ceiling: 300
Heat Index: 50°   Visibility: 2.5mi
Dew Point: 50°   Wind: 8mph
Humidity: 100%   Direction: 140°SE
Pressure: 29.62"   Gusts: NA
Location:  51.91°N, 0.85°E
Report Text: EGUW 270750Z 14007KT 4000 BR BKN003 10/10 Q1003 YLO2 TEMPO 6000 SCT007 GRN
Loading
Personal Weather Stations






























Interactive Weather Map New forecast layout! Learn more

10-Day Weather Forecast

Advertisements
Track Severe Weather on mobile